sensor_id;sensor_type;location;lat;lon;timestamp;temperature;humidity
16781;DHT22;8507;50.056;8.248;2023-10-31T00:01:11;13.00;99.90
16781;DHT22;8507;50.056;8.248;2023-10-31T00:03:36;12.90;99.90
16781;DHT22;8507;50.056;8.248;2023-10-31T00:06:02;12.90;99.90
16781;DHT22;8507;50.056;8.248;2023-10-31T00:08:27;12.70;99.90
16781;DHT22;8507;50.056;8.248;2023-10-31T00:10:53;12.70;99.90
16781;DHT22;8507;50.056;8.248;2023-10-31T00:13:19;12.70;99.90
16781;DHT22;8507;50.056;8.248;2023-10-31T00:15:44;12.70;99.90
16781;DHT22;8507;50.056;8.248;2023-10-31T00:18:09;12.70;99.90
16781;DHT22;8507;50.056;8.248;2023-10-31T00:20:35;12.60;99.90
16781;DHT22;8507;50.056;8.248;2023-10-31T00:23:00;12.60;99.90
16781;DHT22;8507;50.056;8.248;2023-10-31T00:25:26;12.60;99.90
16781;DHT22;8507;50.056;8.248;2023-10-31T00:27:51;12.70;99.90
16781;DHT22;8507;50.056;8.248;2023-10-31T00:30:17;12.60;99.90
16781;DHT22;8507;50.056;8.248;2023-10-31T00:32:42;12.60;99.90
16781;DHT22;8507;50.056;8.248;2023-10-31T00:35:08;12.60;99.90
16781;DHT22;8507;50.056;8.248;2023-10-31T00:37:34;12.50;99.90
16781;DHT22;8507;50.056;8.248;2023-10-31T00:39:59;12.50;99.90
16781;DHT22;8507;50.056;8.248;2023-10-31T00:42:25;12.50;99.90
16781;DHT22;8507;50.056;8.248;2023-10-31T00:44:50;12.40;99.90
16781;DHT22;8507;50.056;8.248;2023-10-31T00:47:16;12.30;99.90
16781;DHT22;8507;50.056;8.248;2023-10-31T00:49:43;12.30;99.90
16781;DHT22;8507;50.056;8.248;2023-10-31T00:52:08;12.30;99.90
16781;DHT22;8507;50.056;8.248;2023-10-31T00:54:34;12.20;99.90
16781;DHT22;8507;50.056;8.248;2023-10-31T00:56:59;12.20;99.90
16781;DHT22;8507;50.056;8.248;2023-10-31T00:59:25;12.20;99.90
16781;DHT22;8507;50.056;8.248;2023-10-31T01:01:50;12.20;99.90
16781;DHT22;8507;50.056;8.248;2023-10-31T01:04:16;12.20;99.90
16781;DHT22;8507;50.056;8.248;2023-10-31T01:06:42;12.10;99.90
16781;DHT22;8507;50.056;8.248;2023-10-31T01:09:11;12.00;99.90
16781;DHT22;8507;50.056;8.248;2023-10-31T01:11:36;12.00;99.90
16781;DHT22;8507;50.056;8.248;2023-10-31T01:14:03;11.90;99.90
16781;DHT22;8507;50.056;8.248;2023-10-31T01:16:28;11.80;99.90
16781;DHT22;8507;50.056;8.248;2023-10-31T01:18:54;11.80;99.90
16781;DHT22;8507;50.056;8.248;2023-10-31T01:21:19;11.70;99.90
16781;DHT22;8507;50.056;8.248;2023-10-31T01:23:45;11.70;99.90
16781;DHT22;8507;50.056;8.248;2023-10-31T01:26:10;11.80;99.90
16781;DHT22;8507;50.056;8.248;2023-10-31T01:28:36;11.80;99.90
16781;DHT22;8507;50.056;8.248;2023-10-31T01:31:01;11.80;99.90
16781;DHT22;8507;50.056;8.248;2023-10-31T01:33:27;11.80;99.90
16781;DHT22;8507;50.056;8.248;2023-10-31T01:35:53;11.80;99.90
16781;DHT22;8507;50.056;8.248;2023-10-31T01:38:18;11.80;99.90
16781;DHT22;8507;50.056;8.248;2023-10-31T01:40:44;11.70;99.90
16781;DHT22;8507;50.056;8.248;2023-10-31T01:43:10;11.60;99.90
16781;DHT22;8507;50.056;8.248;2023-10-31T01:45:36;11.60;99.90
16781;DHT22;8507;50.056;8.248;2023-10-31T01:48:02;11.60;99.90
16781;DHT22;8507;50.056;8.248;2023-10-31T01:50:27;11.50;99.90
16781;DHT22;8507;50.056;8.248;2023-10-31T01:52:54;11.60;99.90
16781;DHT22;8507;50.056;8.248;2023-10-31T01:55:19;11.60;99.90
16781;DHT22;8507;50.056;8.248;2023-10-31T01:57:45;11.70;99.90
16781;DHT22;8507;50.056;8.248;2023-10-31T02:00:12;11.70;99.90
16781;DHT22;8507;50.056;8.248;2023-10-31T02:02:40;11.80;99.90
16781;DHT22;8507;50.056;8.248;2023-10-31T02:05:07;11.70;99.90
16781;DHT22;8507;50.056;8.248;2023-10-31T02:07:33;11.70;99.90
16781;DHT22;8507;50.056;8.248;2023-10-31T02:09:58;11.70;99.90
16781;DHT22;8507;50.056;8.248;2023-10-31T02:12:35;11.80;99.90
16781;DHT22;8507;50.056;8.248;2023-10-31T02:15:01;11.70;99.90
16781;DHT22;8507;50.056;8.248;2023-10-31T02:17:27;11.70;99.90
16781;DHT22;8507;50.056;8.248;2023-10-31T02:19:53;11.60;99.90
16781;DHT22;8507;50.056;8.248;2023-10-31T02:22:18;11.50;99.90
16781;DHT22;8507;50.056;8.248;2023-10-31T02:24:44;11.40;99.90
16781;DHT22;8507;50.056;8.248;2023-10-31T02:27:09;11.20;99.90
16781;DHT22;8507;50.056;8.248;2023-10-31T02:29:35;11.30;99.90
16781;DHT22;8507;50.056;8.248;2023-10-31T02:32:00;11.30;99.90
16781;DHT22;8507;50.056;8.248;2023-10-31T02:34:26;11.40;99.90
16781;DHT22;8507;50.056;8.248;2023-10-31T02:36:51;11.30;99.90
16781;DHT22;8507;50.056;8.248;2023-10-31T02:39:17;11.20;99.90
16781;DHT22;8507;50.056;8.248;2023-10-31T02:41:43;11.10;99.90
16781;DHT22;8507;50.056;8.248;2023-10-31T02:44:09;11.00;99.90
16781;DHT22;8507;50.056;8.248;2023-10-31T02:46:38;11.00;99.90
16781;DHT22;8507;50.056;8.248;2023-10-31T02:49:03;11.00;99.90
16781;DHT22;8507;50.056;8.248;2023-10-31T02:51:29;10.90;99.90
16781;DHT22;8507;50.056;8.248;2023-10-31T02:53:55;10.90;99.90
16781;DHT22;8507;50.056;8.248;2023-10-31T02:56:20;10.80;99.90
16781;DHT22;8507;50.056;8.248;2023-10-31T02:58:46;10.70;99.90
16781;DHT22;8507;50.056;8.248;2023-10-31T03:01:11;10.70;99.90
16781;DHT22;8507;50.056;8.248;2023-10-31T03:03:37;10.60;99.90
16781;DHT22;8507;50.056;8.248;2023-10-31T03:06:04;10.60;99.90
16781;DHT22;8507;50.056;8.248;2023-10-31T03:08:29;10.60;99.90
16781;DHT22;8507;50.056;8.248;2023-10-31T03:10:55;10.60;99.90
16781;DHT22;8507;50.056;8.248;2023-10-31T03:13:20;10.40;99.90
16781;DHT22;8507;50.056;8.248;2023-10-31T03:15:46;10.40;99.90
16781;DHT22;8507;50.056;8.248;2023-10-31T03:18:12;10.20;99.90
16781;DHT22;8507;50.056;8.248;2023-10-31T03:20:40;10.20;99.90
16781;DHT22;8507;50.056;8.248;2023-10-31T03:23:05;10.20;99.90
16781;DHT22;8507;50.056;8.248;2023-10-31T03:25:31;10.20;99.90
16781;DHT22;8507;50.056;8.248;2023-10-31T03:27:56;10.40;99.90
16781;DHT22;8507;50.056;8.248;2023-10-31T03:30:22;10.40;99.90
16781;DHT22;8507;50.056;8.248;2023-10-31T03:32:47;10.30;99.90
16781;DHT22;8507;50.056;8.248;2023-10-31T03:35:13;10.20;99.90
16781;DHT22;8507;50.056;8.248;2023-10-31T03:37:38;10.10;99.90
16781;DHT22;8507;50.056;8.248;2023-10-31T03:40:08;10.10;99.90
16781;DHT22;8507;50.056;8.248;2023-10-31T03:42:34;10.10;99.90
16781;DHT22;8507;50.056;8.248;2023-10-31T03:44:59;10.10;99.90
16781;DHT22;8507;50.056;8.248;2023-10-31T03:47:25;10.20;99.90
16781;DHT22;8507;50.056;8.248;2023-10-31T03:49:50;10.10;99.90
16781;DHT22;8507;50.056;8.248;2023-10-31T03:52:16;10.20;99.90
16781;DHT22;8507;50.056;8.248;2023-10-31T03:54:41;10.30;99.90
16781;DHT22;8507;50.056;8.248;2023-10-31T03:57:07;10.40;99.90
16781;DHT22;8507;50.056;8.248;2023-10-31T03:59:32;10.60;99.90
16781;DHT22;8507;50.056;8.248;2023-10-31T04:01:58;10.70;99.90
16781;DHT22;8507;50.056;8.248;2023-10-31T04:04:23;10.80;99.90
16781;DHT22;8507;50.056;8.248;2023-10-31T04:06:49;10.90;99.90
16781;DHT22;8507;50.056;8.248;2023-10-31T04:09:14;11.00;99.90
16781;DHT22;8507;50.056;8.248;2023-10-31T04:11:40;11.10;99.90
16781;DHT22;8507;50.056;8.248;2023-10-31T04:14:06;11.20;99.90
16781;DHT22;8507;50.056;8.248;2023-10-31T04:16:32;11.20;99.90
16781;DHT22;8507;50.056;8.248;2023-10-31T04:18:57;11.20;99.90
16781;DHT22;8507;50.056;8.248;2023-10-31T04:21:23;11.20;99.90
16781;DHT22;8507;50.056;8.248;2023-10-31T04:23:48;11.30;99.90
16781;DHT22;8507;50.056;8.248;2023-10-31T04:26:14;11.40;99.90
16781;DHT22;8507;50.056;8.248;2023-10-31T04:28:41;11.40;99.90
16781;DHT22;8507;50.056;8.248;2023-10-31T04:31:06;11.40;99.90
16781;DHT22;8507;50.056;8.248;2023-10-31T04:33:32;11.50;99.90
16781;DHT22;8507;50.056;8.248;2023-10-31T04:35:57;11.50;99.90
16781;DHT22;8507;50.056;8.248;2023-10-31T04:38:23;11.50;99.90
16781;DHT22;8507;50.056;8.248;2023-10-31T04:40:48;11.60;99.90
16781;DHT22;8507;50.056;8.248;2023-10-31T04:43:14;11.60;99.90
16781;DHT22;8507;50.056;8.248;2023-10-31T04:45:39;11.60;99.90
16781;DHT22;8507;50.056;8.248;2023-10-31T04:48:05;11.70;99.90
16781;DHT22;8507;50.056;8.248;2023-10-31T04:50:30;11.70;99.90
16781;DHT22;8507;50.056;8.248;2023-10-31T04:52:56;11.70;99.90
16781;DHT22;8507;50.056;8.248;2023-10-31T04:55:21;11.70;99.90
16781;DHT22;8507;50.056;8.248;2023-10-31T04:57:47;11.60;99.90
16781;DHT22;8507;50.056;8.248;2023-10-31T05:00:13;11.60;99.90
16781;DHT22;8507;50.056;8.248;2023-10-31T05:02:38;11.60;99.90
16781;DHT22;8507;50.056;8.248;2023-10-31T05:05:04;11.50;99.90
16781;DHT22;8507;50.056;8.248;2023-10-31T05:07:29;11.60;99.90
16781;DHT22;8507;50.056;8.248;2023-10-31T05:09:55;11.60;99.90
16781;DHT22;8507;50.056;8.248;2023-10-31T05:12:21;11.60;99.90
16781;DHT22;8507;50.056;8.248;2023-10-31T05:14:46;11.60;99.90
16781;DHT22;8507;50.056;8.248;2023-10-31T05:17:12;11.50;99.90
16781;DHT22;8507;50.056;8.248;2023-10-31T05:19:38;11.50;99.90
16781;DHT22;8507;50.056;8.248;2023-10-31T05:22:03;11.50;99.90
16781;DHT22;8507;50.056;8.248;2023-10-31T05:24:29;11.60;99.90
16781;DHT22;8507;50.056;8.248;2023-10-31T05:26:54;11.60;99.90
16781;DHT22;8507;50.056;8.248;2023-10-31T05:29:20;11.70;99.90
16781;DHT22;8507;50.056;8.248;2023-10-31T05:31:45;11.70;99.90
16781;DHT22;8507;50.056;8.248;2023-10-31T05:34:11;11.70;99.90
16781;DHT22;8507;50.056;8.248;2023-10-31T05:36:36;11.70;99.90
16781;DHT22;8507;50.056;8.248;2023-10-31T05:39:02;11.80;99.90
16781;DHT22;8507;50.056;8.248;2023-10-31T05:41:27;11.80;99.90
16781;DHT22;8507;50.056;8.248;2023-10-31T05:43:53;11.90;99.90
16781;DHT22;8507;50.056;8.248;2023-10-31T05:46:18;11.90;99.90
16781;DHT22;8507;50.056;8.248;2023-10-31T05:48:45;11.90;99.90
16781;DHT22;8507;50.056;8.248;2023-10-31T05:51:15;11.90;99.90
16781;DHT22;8507;50.056;8.248;2023-10-31T05:53:42;11.80;99.90
16781;DHT22;8507;50.056;8.248;2023-10-31T05:56:09;11.80;99.90
16781;DHT22;8507;50.056;8.248;2023-10-31T05:58:36;11.80;99.90
16781;DHT22;8507;50.056;8.248;2023-10-31T06:01:02;11.80;99.90
16781;DHT22;8507;50.056;8.248;2023-10-31T06:03:27;11.90;99.90
16781;DHT22;8507;50.056;8.248;2023-10-31T06:05:53;11.80;99.90
16781;DHT22;8507;50.056;8.248;2023-10-31T06:08:18;11.90;99.90
16781;DHT22;8507;50.056;8.248;2023-10-31T06:10:44;11.90;99.90
16781;DHT22;8507;50.056;8.248;2023-10-31T06:13:09;11.90;99.90
16781;DHT22;8507;50.056;8.248;2023-10-31T06:15:35;11.90;99.90
16781;DHT22;8507;50.056;8.248;2023-10-31T06:18:00;11.90;99.90
16781;DHT22;8507;50.056;8.248;2023-10-31T06:20:26;11.90;99.90
16781;DHT22;8507;50.056;8.248;2023-10-31T06:22:51;12.00;99.90
16781;DHT22;8507;50.056;8.248;2023-10-31T06:25:17;11.90;99.90
16781;DHT22;8507;50.056;8.248;2023-10-31T06:27:42;11.90;99.90
16781;DHT22;8507;50.056;8.248;2023-10-31T06:30:09;11.90;99.90
16781;DHT22;8507;50.056;8.248;2023-10-31T06:32:34;11.90;99.90
16781;DHT22;8507;50.056;8.248;2023-10-31T06:35:00;12.00;99.90
16781;DHT22;8507;50.056;8.248;2023-10-31T06:37:25;12.00;99.90
16781;DHT22;8507;50.056;8.248;2023-10-31T06:39:51;12.00;99.90
16781;DHT22;8507;50.056;8.248;2023-10-31T06:42:17;12.00;99.90
16781;DHT22;8507;50.056;8.248;2023-10-31T06:44:43;12.00;99.90
16781;DHT22;8507;50.056;8.248;2023-10-31T06:47:09;12.00;99.90
16781;DHT22;8507;50.056;8.248;2023-10-31T06:49:34;12.00;99.90
16781;DHT22;8507;50.056;8.248;2023-10-31T06:51:59;12.00;99.90
16781;DHT22;8507;50.056;8.248;2023-10-31T06:54:25;12.00;99.90
16781;DHT22;8507;50.056;8.248;2023-10-31T06:56:51;12.00;99.90
16781;DHT22;8507;50.056;8.248;2023-10-31T06:59:17;12.10;99.90
16781;DHT22;8507;50.056;8.248;2023-10-31T07:01:42;12.00;99.90
16781;DHT22;8507;50.056;8.248;2023-10-31T07:04:08;11.90;99.90
16781;DHT22;8507;50.056;8.248;2023-10-31T07:06:34;11.90;99.90
16781;DHT22;8507;50.056;8.248;2023-10-31T07:08:59;11.90;99.90
16781;DHT22;8507;50.056;8.248;2023-10-31T07:11:30;11.90;99.90
16781;DHT22;8507;50.056;8.248;2023-10-31T07:13:57;11.90;99.90
16781;DHT22;8507;50.056;8.248;2023-10-31T07:16:23;11.90;99.90
16781;DHT22;8507;50.056;8.248;2023-10-31T07:18:48;11.80;99.90
16781;DHT22;8507;50.056;8.248;2023-10-31T07:21:14;11.80;99.90
16781;DHT22;8507;50.056;8.248;2023-10-31T07:23:39;11.90;99.90
16781;DHT22;8507;50.056;8.248;2023-10-31T07:26:05;11.90;99.90
16781;DHT22;8507;50.056;8.248;2023-10-31T07:28:30;11.90;99.90
16781;DHT22;8507;50.056;8.248;2023-10-31T07:30:56;12.00;99.90
16781;DHT22;8507;50.056;8.248;2023-10-31T07:33:21;12.10;99.90
16781;DHT22;8507;50.056;8.248;2023-10-31T07:35:47;12.10;99.90
16781;DHT22;8507;50.056;8.248;2023-10-31T07:38:12;12.00;99.90
16781;DHT22;8507;50.056;8.248;2023-10-31T07:40:38;12.00;99.90
16781;DHT22;8507;50.056;8.248;2023-10-31T07:43:04;12.00;99.90
16781;DHT22;8507;50.056;8.248;2023-10-31T07:45:29;12.00;99.90
16781;DHT22;8507;50.056;8.248;2023-10-31T07:47:55;12.00;99.90
16781;DHT22;8507;50.056;8.248;2023-10-31T07:50:20;12.00;99.90
16781;DHT22;8507;50.056;8.248;2023-10-31T07:52:46;12.00;99.90
16781;DHT22;8507;50.056;8.248;2023-10-31T07:55:13;12.00;99.90
16781;DHT22;8507;50.056;8.248;2023-10-31T07:57:38;12.10;99.90
16781;DHT22;8507;50.056;8.248;2023-10-31T08:00:04;12.20;99.90
16781;DHT22;8507;50.056;8.248;2023-10-31T08:02:30;12.30;99.90
16781;DHT22;8507;50.056;8.248;2023-10-31T08:04:56;12.30;99.90
16781;DHT22;8507;50.056;8.248;2023-10-31T08:07:21;12.30;99.90
16781;DHT22;8507;50.056;8.248;2023-10-31T08:09:48;12.50;99.90
16781;DHT22;8507;50.056;8.248;2023-10-31T08:12:14;12.50;99.90
16781;DHT22;8507;50.056;8.248;2023-10-31T08:14:40;12.40;99.90
16781;DHT22;8507;50.056;8.248;2023-10-31T08:17:06;12.40;99.90
16781;DHT22;8507;50.056;8.248;2023-10-31T08:19:31;12.60;99.90
16781;DHT22;8507;50.056;8.248;2023-10-31T08:21:57;12.60;99.90
16781;DHT22;8507;50.056;8.248;2023-10-31T08:24:22;12.60;99.90
16781;DHT22;8507;50.056;8.248;2023-10-31T08:26:48;12.70;99.90
16781;DHT22;8507;50.056;8.248;2023-10-31T08:29:13;12.70;99.90
16781;DHT22;8507;50.056;8.248;2023-10-31T08:31:39;12.80;99.90
16781;DHT22;8507;50.056;8.248;2023-10-31T08:34:04;12.80;99.90
16781;DHT22;8507;50.056;8.248;2023-10-31T08:36:30;12.80;99.90
16781;DHT22;8507;50.056;8.248;2023-10-31T08:38:55;12.70;99.90
16781;DHT22;8507;50.056;8.248;2023-10-31T08:41:21;12.70;99.90
16781;DHT22;8507;50.056;8.248;2023-10-31T08:43:47;12.60;99.90
16781;DHT22;8507;50.056;8.248;2023-10-31T08:46:13;12.60;99.90
16781;DHT22;8507;50.056;8.248;2023-10-31T08:48:39;12.60;99.90
16781;DHT22;8507;50.056;8.248;2023-10-31T08:51:04;12.60;99.90
16781;DHT22;8507;50.056;8.248;2023-10-31T08:53:30;12.50;99.90
16781;DHT22;8507;50.056;8.248;2023-10-31T08:55:55;12.70;99.90
16781;DHT22;8507;50.056;8.248;2023-10-31T08:58:22;12.70;99.90
16781;DHT22;8507;50.056;8.248;2023-10-31T09:00:47;12.80;99.90
16781;DHT22;8507;50.056;8.248;2023-10-31T09:03:13;12.80;99.90
16781;DHT22;8507;50.056;8.248;2023-10-31T09:05:39;12.90;99.90
16781;DHT22;8507;50.056;8.248;2023-10-31T09:08:05;12.90;99.90
16781;DHT22;8507;50.056;8.248;2023-10-31T09:10:30;12.90;99.90
16781;DHT22;8507;50.056;8.248;2023-10-31T09:12:56;13.00;99.90
16781;DHT22;8507;50.056;8.248;2023-10-31T09:15:21;13.00;99.90
16781;DHT22;8507;50.056;8.248;2023-10-31T09:17:47;13.00;99.90
16781;DHT22;8507;50.056;8.248;2023-10-31T09:20:13;12.90;99.90
16781;DHT22;8507;50.056;8.248;2023-10-31T09:22:38;12.90;99.90
16781;DHT22;8507;50.056;8.248;2023-10-31T09:25:04;12.90;99.90
16781;DHT22;8507;50.056;8.248;2023-10-31T09:27:30;12.80;99.90
16781;DHT22;8507;50.056;8.248;2023-10-31T09:29:55;12.90;99.90
16781;DHT22;8507;50.056;8.248;2023-10-31T09:32:21;13.00;99.90
16781;DHT22;8507;50.056;8.248;2023-10-31T09:34:46;13.00;99.90
16781;DHT22;8507;50.056;8.248;2023-10-31T09:37:12;13.00;99.90
16781;DHT22;8507;50.056;8.248;2023-10-31T09:39:38;13.10;99.90
16781;DHT22;8507;50.056;8.248;2023-10-31T09:42:05;13.20;99.90
16781;DHT22;8507;50.056;8.248;2023-10-31T09:44:31;13.30;99.90
16781;DHT22;8507;50.056;8.248;2023-10-31T09:46:57;13.30;99.90
16781;DHT22;8507;50.056;8.248;2023-10-31T09:49:22;13.40;99.90
16781;DHT22;8507;50.056;8.248;2023-10-31T09:51:48;13.50;99.90
16781;DHT22;8507;50.056;8.248;2023-10-31T09:54:15;13.50;99.90
16781;DHT22;8507;50.056;8.248;2023-10-31T09:56:42;13.70;99.90
16781;DHT22;8507;50.056;8.248;2023-10-31T09:59:09;13.80;99.90
16781;DHT22;8507;50.056;8.248;2023-10-31T10:01:35;14.00;99.90
16781;DHT22;8507;50.056;8.248;2023-10-31T10:04:01;14.10;99.90
16781;DHT22;8507;50.056;8.248;2023-10-31T10:06:27;14.10;99.90
16781;DHT22;8507;50.056;8.248;2023-10-31T10:08:52;14.30;99.90
16781;DHT22;8507;50.056;8.248;2023-10-31T10:11:18;14.40;99.90
16781;DHT22;8507;50.056;8.248;2023-10-31T10:13:44;14.60;99.90
16781;DHT22;8507;50.056;8.248;2023-10-31T10:16:10;14.90;99.90
16781;DHT22;8507;50.056;8.248;2023-10-31T10:18:36;14.90;99.90
16781;DHT22;8507;50.056;8.248;2023-10-31T10:21:06;14.90;99.90
16781;DHT22;8507;50.056;8.248;2023-10-31T10:23:33;15.00;99.90
16781;DHT22;8507;50.056;8.248;2023-10-31T10:26:00;15.00;99.90
16781;DHT22;8507;50.056;8.248;2023-10-31T10:28:26;15.00;99.90
16781;DHT22;8507;50.056;8.248;2023-10-31T10:30:55;15.00;99.90
16781;DHT22;8507;50.056;8.248;2023-10-31T10:33:21;15.10;99.90
16781;DHT22;8507;50.056;8.248;2023-10-31T10:35:47;15.30;99.90
16781;DHT22;8507;50.056;8.248;2023-10-31T10:38:18;15.20;99.90
16781;DHT22;8507;50.056;8.248;2023-10-31T10:40:46;15.20;99.90
16781;DHT22;8507;50.056;8.248;2023-10-31T10:45:42;15.30;99.90
16781;DHT22;8507;50.056;8.248;2023-10-31T10:48:12;15.20;99.90
16781;DHT22;8507;50.056;8.248;2023-10-31T10:50:42;15.40;99.90
16781;DHT22;8507;50.056;8.248;2023-10-31T10:53:22;15.40;99.90
16781;DHT22;8507;50.056;8.248;2023-10-31T10:55:51;15.30;99.90
16781;DHT22;8507;50.056;8.248;2023-10-31T10:58:34;15.00;99.90
16781;DHT22;8507;50.056;8.248;2023-10-31T11:01:02;15.20;99.90
16781;DHT22;8507;50.056;8.248;2023-10-31T11:03:29;15.20;99.90
16781;DHT22;8507;50.056;8.248;2023-10-31T11:05:55;15.10;99.90
16781;DHT22;8507;50.056;8.248;2023-10-31T11:08:23;15.20;99.90
16781;DHT22;8507;50.056;8.248;2023-10-31T11:10:50;15.20;99.90
16781;DHT22;8507;50.056;8.248;2023-10-31T11:13:15;15.10;99.90
16781;DHT22;8507;50.056;8.248;2023-10-31T11:15:42;15.00;99.90
16781;DHT22;8507;50.056;8.248;2023-10-31T11:18:09;15.00;99.90
16781;DHT22;8507;50.056;8.248;2023-10-31T11:20:36;15.00;99.90
16781;DHT22;8507;50.056;8.248;2023-10-31T11:23:02;15.00;99.90
16781;DHT22;8507;50.056;8.248;2023-10-31T11:25:32;15.20;99.90
16781;DHT22;8507;50.056;8.248;2023-10-31T11:28:19;15.30;99.90
16781;DHT22;8507;50.056;8.248;2023-10-31T11:30:48;15.40;99.90
16781;DHT22;8507;50.056;8.248;2023-10-31T11:33:16;15.50;99.90
16781;DHT22;8507;50.056;8.248;2023-10-31T11:35:43;15.60;99.90
16781;DHT22;8507;50.056;8.248;2023-10-31T11:38:12;15.70;99.90
16781;DHT22;8507;50.056;8.248;2023-10-31T11:40:58;15.80;99.90
16781;DHT22;8507;50.056;8.248;2023-10-31T11:43:25;15.90;99.90
16781;DHT22;8507;50.056;8.248;2023-10-31T11:45:52;16.30;99.90
16781;DHT22;8507;50.056;8.248;2023-10-31T11:48:48;16.60;99.90
16781;DHT22;8507;50.056;8.248;2023-10-31T11:51:15;16.70;99.90
16781;DHT22;8507;50.056;8.248;2023-10-31T11:53:41;16.60;99.90
16781;DHT22;8507;50.056;8.248;2023-10-31T11:56:10;16.60;99.90
16781;DHT22;8507;50.056;8.248;2023-10-31T11:58:36;16.60;99.90
16781;DHT22;8507;50.056;8.248;2023-10-31T12:01:07;16.70;99.90
16781;DHT22;8507;50.056;8.248;2023-10-31T12:03:41;17.00;99.90
16781;DHT22;8507;50.056;8.248;2023-10-31T12:06:07;17.00;99.90
16781;DHT22;8507;50.056;8.248;2023-10-31T12:08:38;17.10;99.90
16781;DHT22;8507;50.056;8.248;2023-10-31T12:11:12;17.10;99.90
16781;DHT22;8507;50.056;8.248;2023-10-31T12:13:40;17.20;99.90
16781;DHT22;8507;50.056;8.248;2023-10-31T12:16:07;17.40;99.90
16781;DHT22;8507;50.056;8.248;2023-10-31T12:18:36;17.60;99.90
16781;DHT22;8507;50.056;8.248;2023-10-31T12:21:04;17.50;99.90
16781;DHT22;8507;50.056;8.248;2023-10-31T12:23:30;17.70;99.90
16781;DHT22;8507;50.056;8.248;2023-10-31T12:25:55;17.70;99.90
16781;DHT22;8507;50.056;8.248;2023-10-31T12:28:23;17.60;99.90
16781;DHT22;8507;50.056;8.248;2023-10-31T12:30:51;17.80;99.90
16781;DHT22;8507;50.056;8.248;2023-10-31T12:33:17;17.70;99.90
16781;DHT22;8507;50.056;8.248;2023-10-31T12:35:43;17.90;99.90
16781;DHT22;8507;50.056;8.248;2023-10-31T12:38:11;17.90;99.90
16781;DHT22;8507;50.056;8.248;2023-10-31T12:40:38;18.00;99.90
16781;DHT22;8507;50.056;8.248;2023-10-31T12:43:04;17.80;99.90
16781;DHT22;8507;50.056;8.248;2023-10-31T12:45:30;17.30;99.90
16781;DHT22;8507;50.056;8.248;2023-10-31T12:48:09;16.90;99.90
16781;DHT22;8507;50.056;8.248;2023-10-31T12:50:36;16.70;99.90
16781;DHT22;8507;50.056;8.248;2023-10-31T12:53:03;16.50;99.90
16781;DHT22;8507;50.056;8.248;2023-10-31T12:55:30;16.20;99.90
16781;DHT22;8507;50.056;8.248;2023-10-31T12:57:57;16.10;99.90
16781;DHT22;8507;50.056;8.248;2023-10-31T13:00:31;15.90;99.90
16781;DHT22;8507;50.056;8.248;2023-10-31T13:03:05;15.70;99.90
16781;DHT22;8507;50.056;8.248;2023-10-31T13:05:31;15.60;99.90
16781;DHT22;8507;50.056;8.248;2023-10-31T13:07:58;15.50;99.90
16781;DHT22;8507;50.056;8.248;2023-10-31T13:10:26;15.50;99.90
16781;DHT22;8507;50.056;8.248;2023-10-31T13:12:53;15.60;99.90
16781;DHT22;8507;50.056;8.248;2023-10-31T13:15:22;15.70;99.90
16781;DHT22;8507;50.056;8.248;2023-10-31T13:17:49;15.60;99.90
16781;DHT22;8507;50.056;8.248;2023-10-31T13:20:16;15.70;99.90
16781;DHT22;8507;50.056;8.248;2023-10-31T13:22:43;15.70;99.90
16781;DHT22;8507;50.056;8.248;2023-10-31T13:25:11;15.60;99.90
16781;DHT22;8507;50.056;8.248;2023-10-31T13:27:38;15.60;99.90
16781;DHT22;8507;50.056;8.248;2023-10-31T13:30:04;15.80;99.90
16781;DHT22;8507;50.056;8.248;2023-10-31T13:32:30;15.90;99.90
16781;DHT22;8507;50.056;8.248;2023-10-31T13:34:56;16.00;99.90
16781;DHT22;8507;50.056;8.248;2023-10-31T13:37:22;16.10;99.90
16781;DHT22;8507;50.056;8.248;2023-10-31T13:39:47;16.10;99.90
16781;DHT22;8507;50.056;8.248;2023-10-31T13:42:13;16.10;99.90
16781;DHT22;8507;50.056;8.248;2023-10-31T13:44:43;16.10;99.90
16781;DHT22;8507;50.056;8.248;2023-10-31T13:47:09;16.20;99.90
16781;DHT22;8507;50.056;8.248;2023-10-31T13:49:35;16.10;99.90
16781;DHT22;8507;50.056;8.248;2023-10-31T13:52:01;16.00;99.90
16781;DHT22;8507;50.056;8.248;2023-10-31T13:54:26;16.10;99.90
16781;DHT22;8507;50.056;8.248;2023-10-31T13:56:52;16.00;99.90
16781;DHT22;8507;50.056;8.248;2023-10-31T13:59:18;15.90;99.90
16781;DHT22;8507;50.056;8.248;2023-10-31T14:01:44;15.90;99.90
16781;DHT22;8507;50.056;8.248;2023-10-31T14:04:11;15.90;99.90
16781;DHT22;8507;50.056;8.248;2023-10-31T14:06:39;15.90;99.90
16781;DHT22;8507;50.056;8.248;2023-10-31T14:09:05;15.90;99.90
16781;DHT22;8507;50.056;8.248;2023-10-31T14:11:32;15.90;99.90
16781;DHT22;8507;50.056;8.248;2023-10-31T14:13:59;15.90;99.90
16781;DHT22;8507;50.056;8.248;2023-10-31T14:16:29;15.90;99.90
16781;DHT22;8507;50.056;8.248;2023-10-31T14:18:55;15.80;99.90
16781;DHT22;8507;50.056;8.248;2023-10-31T14:21:21;15.80;99.90
16781;DHT22;8507;50.056;8.248;2023-10-31T14:23:46;15.70;99.90
16781;DHT22;8507;50.056;8.248;2023-10-31T14:26:19;15.50;99.90
16781;DHT22;8507;50.056;8.248;2023-10-31T14:28:45;15.40;99.90
16781;DHT22;8507;50.056;8.248;2023-10-31T14:31:11;15.20;99.90
16781;DHT22;8507;50.056;8.248;2023-10-31T14:33:36;15.10;99.90
16781;DHT22;8507;50.056;8.248;2023-10-31T14:36:02;14.90;99.90
16781;DHT22;8507;50.056;8.248;2023-10-31T14:38:28;14.70;99.90
16781;DHT22;8507;50.056;8.248;2023-10-31T14:40:53;14.60;99.90
16781;DHT22;8507;50.056;8.248;2023-10-31T14:43:19;14.50;99.90
16781;DHT22;8507;50.056;8.248;2023-10-31T14:45:44;14.40;99.90
16781;DHT22;8507;50.056;8.248;2023-10-31T14:48:10;14.40;99.90
16781;DHT22;8507;50.056;8.248;2023-10-31T14:50:36;14.30;99.90
16781;DHT22;8507;50.056;8.248;2023-10-31T14:53:01;14.20;99.90
16781;DHT22;8507;50.056;8.248;2023-10-31T14:55:27;14.20;99.90
16781;DHT22;8507;50.056;8.248;2023-10-31T14:57:53;14.20;99.90
16781;DHT22;8507;50.056;8.248;2023-10-31T15:00:18;14.10;99.90
16781;DHT22;8507;50.056;8.248;2023-10-31T15:02:44;14.20;99.90
16781;DHT22;8507;50.056;8.248;2023-10-31T15:05:09;14.20;99.90
16781;DHT22;8507;50.056;8.248;2023-10-31T15:07:35;14.20;99.90
16781;DHT22;8507;50.056;8.248;2023-10-31T15:10:01;14.20;99.90
16781;DHT22;8507;50.056;8.248;2023-10-31T15:12:28;14.10;99.90
16781;DHT22;8507;50.056;8.248;2023-10-31T15:14:53;14.10;99.90
16781;DHT22;8507;50.056;8.248;2023-10-31T15:17:20;14.10;99.90
16781;DHT22;8507;50.056;8.248;2023-10-31T15:19:46;14.00;99.90
16781;DHT22;8507;50.056;8.248;2023-10-31T15:22:11;14.00;99.90
16781;DHT22;8507;50.056;8.248;2023-10-31T15:24:37;14.00;99.90
16781;DHT22;8507;50.056;8.248;2023-10-31T15:27:02;14.00;99.90
16781;DHT22;8507;50.056;8.248;2023-10-31T15:29:28;14.00;99.90
16781;DHT22;8507;50.056;8.248;2023-10-31T15:31:54;14.00;99.90
16781;DHT22;8507;50.056;8.248;2023-10-31T15:34:21;14.00;99.90
16781;DHT22;8507;50.056;8.248;2023-10-31T15:36:46;14.00;99.90
16781;DHT22;8507;50.056;8.248;2023-10-31T15:39:12;14.00;99.90
16781;DHT22;8507;50.056;8.248;2023-10-31T15:41:38;14.00;99.90